sensor_id;sensor_type;location;lat;lon;timestamp;P1;durP1;ratioP1;P2;durP2;ratioP2
75781;SDS011;64400;44.762;37.698;2023-01-05T00:00:29;19.15;;;8.95;;
75781;SDS011;64400;44.762;37.698;2023-01-05T00:03:08;16.00;;;8.82;;
75781;SDS011;64400;44.762;37.698;2023-01-05T00:05:46;17.05;;;8.77;;
75781;SDS011;64400;44.762;37.698;2023-01-05T00:08:25;17.40;;;8.93;;
75781;SDS011;64400;44.762;37.698;2023-01-05T00:11:18;18.17;;;9.13;;
75781;SDS011;64400;44.762;37.698;2023-01-05T00:14:21;17.05;;;8.45;;
75781;SDS011;64400;44.762;37.698;2023-01-05T00:17:21;17.55;;;9.65;;
75781;SDS011;64400;44.762;37.698;2023-01-05T00:20:19;18.20;;;9.18;;
75781;SDS011;64400;44.762;37.698;2023-01-05T00:23:17;15.70;;;8.73;;
75781;SDS011;64400;44.762;37.698;2023-01-05T00:25:57;16.77;;;9.07;;
75781;SDS011;64400;44.762;37.698;2023-01-05T00:28:35;15.48;;;8.43;;
75781;SDS011;64400;44.762;37.698;2023-01-05T00:31:13;16.70;;;9.10;;
75781;SDS011;64400;44.762;37.698;2023-01-05T00:33:51;17.20;;;9.82;;
75781;SDS011;64400;44.762;37.698;2023-01-05T00:36:30;13.85;;;7.72;;
75781;SDS011;64400;44.762;37.698;2023-01-05T00:39:08;14.48;;;7.10;;
75781;SDS011;64400;44.762;37.698;2023-01-05T00:41:47;12.07;;;6.78;;
75781;SDS011;64400;44.762;37.698;2023-01-05T00:44:25;13.23;;;7.47;;
75781;SDS011;64400;44.762;37.698;2023-01-05T00:47:03;11.82;;;6.13;;
75781;SDS011;64400;44.762;37.698;2023-01-05T00:49:42;14.52;;;7.47;;
75781;SDS011;64400;44.762;37.698;2023-01-05T00:52:20;11.93;;;6.80;;
75781;SDS011;64400;44.762;37.698;2023-01-05T00:54:58;11.85;;;6.50;;
75781;SDS011;64400;44.762;37.698;2023-01-05T00:57:37;14.07;;;6.70;;
75781;SDS011;64400;44.762;37.698;2023-01-05T01:00:16;13.10;;;7.32;;
75781;SDS011;64400;44.762;37.698;2023-01-05T01:02:56;14.68;;;8.32;;
75781;SDS011;64400;44.762;37.698;2023-01-05T01:05:34;19.92;;;10.40;;
75781;SDS011;64400;44.762;37.698;2023-01-05T01:08:12;19.05;;;9.90;;
75781;SDS011;64400;44.762;37.698;2023-01-05T01:10:50;15.80;;;8.25;;
75781;SDS011;64400;44.762;37.698;2023-01-05T01:13:28;10.60;;;6.03;;
75781;SDS011;64400;44.762;37.698;2023-01-05T01:16:07;13.73;;;7.10;;
75781;SDS011;64400;44.762;37.698;2023-01-05T01:18:46;13.63;;;6.70;;
75781;SDS011;64400;44.762;37.698;2023-01-05T01:21:25;13.10;;;7.00;;
75781;SDS011;64400;44.762;37.698;2023-01-05T01:24:03;18.48;;;9.93;;
75781;SDS011;64400;44.762;37.698;2023-01-05T01:26:41;23.38;;;11.23;;
75781;SDS011;64400;44.762;37.698;2023-01-05T01:29:20;19.88;;;9.85;;
75781;SDS011;64400;44.762;37.698;2023-01-05T01:32:00;15.90;;;9.07;;
75781;SDS011;64400;44.762;37.698;2023-01-05T01:34:38;10.85;;;6.57;;
75781;SDS011;64400;44.762;37.698;2023-01-05T01:37:17;11.00;;;6.30;;
75781;SDS011;64400;44.762;37.698;2023-01-05T01:39:59;10.48;;;6.28;;
75781;SDS011;64400;44.762;37.698;2023-01-05T01:42:39;8.13;;;5.35;;
75781;SDS011;64400;44.762;37.698;2023-01-05T01:45:18;9.43;;;5.53;;
75781;SDS011;64400;44.762;37.698;2023-01-05T01:48:01;8.40;;;4.90;;
75781;SDS011;64400;44.762;37.698;2023-01-05T01:50:40;9.13;;;5.30;;
75781;SDS011;64400;44.762;37.698;2023-01-05T01:53:33;8.93;;;5.15;;
75781;SDS011;64400;44.762;37.698;2023-01-05T01:56:16;9.52;;;5.28;;
75781;SDS011;64400;44.762;37.698;2023-01-05T01:58:57;10.82;;;5.70;;
75781;SDS011;64400;44.762;37.698;2023-01-05T02:01:37;10.38;;;5.55;;
75781;SDS011;64400;44.762;37.698;2023-01-05T02:04:16;9.70;;;5.15;;
75781;SDS011;64400;44.762;37.698;2023-01-05T02:06:56;8.60;;;4.88;;
75781;SDS011;64400;44.762;37.698;2023-01-05T02:09:35;10.55;;;5.07;;
75781;SDS011;64400;44.762;37.698;2023-01-05T02:18:12;8.00;;;4.70;;
75781;SDS011;64400;44.762;37.698;2023-01-05T02:24:12;9.25;;;4.63;;
75781;SDS011;64400;44.762;37.698;2023-01-05T02:27:16;7.85;;;5.22;;
75781;SDS011;64400;44.762;37.698;2023-01-05T02:30:14;8.35;;;4.55;;
75781;SDS011;64400;44.762;37.698;2023-01-05T02:36:03;8.50;;;4.28;;
75781;SDS011;64400;44.762;37.698;2023-01-05T02:39:15;7.80;;;4.22;;
75781;SDS011;64400;44.762;37.698;2023-01-05T02:42:05;8.05;;;4.32;;
75781;SDS011;64400;44.762;37.698;2023-01-05T02:44:48;8.68;;;4.70;;
75781;SDS011;64400;44.762;37.698;2023-01-05T02:50:23;9.32;;;4.78;;
75781;SDS011;64400;44.762;37.698;2023-01-05T02:53:13;9.77;;;5.22;;
75781;SDS011;64400;44.762;37.698;2023-01-05T02:56:01;11.43;;;5.53;;
75781;SDS011;64400;44.762;37.698;2023-01-05T02:58:50;10.85;;;5.20;;
75781;SDS011;64400;44.762;37.698;2023-01-05T03:01:34;9.45;;;4.93;;
75781;SDS011;64400;44.762;37.698;2023-01-05T03:04:21;7.10;;;4.68;;
75781;SDS011;64400;44.762;37.698;2023-01-05T03:07:14;18.85;;;12.38;;
75781;SDS011;64400;44.762;37.698;2023-01-05T03:09:59;22.13;;;16.33;;
75781;SDS011;64400;44.762;37.698;2023-01-05T03:13:00;25.08;;;18.98;;
75781;SDS011;64400;44.762;37.698;2023-01-05T03:16:26;12.68;;;7.28;;
75781;SDS011;64400;44.762;37.698;2023-01-05T03:19:12;9.30;;;5.30;;
75781;SDS011;64400;44.762;37.698;2023-01-05T03:22:16;11.40;;;5.90;;
75781;SDS011;64400;44.762;37.698;2023-01-05T03:25:18;8.88;;;6.32;;
75781;SDS011;64400;44.762;37.698;2023-01-05T03:28:40;11.60;;;7.53;;
75781;SDS011;64400;44.762;37.698;2023-01-05T03:31:47;11.00;;;7.18;;
75781;SDS011;64400;44.762;37.698;2023-01-05T03:35:25;11.98;;;7.63;;
75781;SDS011;64400;44.762;37.698;2023-01-05T03:41:02;15.50;;;7.65;;
75781;SDS011;64400;44.762;37.698;2023-01-05T03:43:47;14.85;;;7.85;;
75781;SDS011;64400;44.762;37.698;2023-01-05T03:46:28;16.50;;;9.13;;
75781;SDS011;64400;44.762;37.698;2023-01-05T03:49:07;16.63;;;8.82;;
75781;SDS011;64400;44.762;37.698;2023-01-05T03:51:45;17.80;;;7.97;;
75781;SDS011;64400;44.762;37.698;2023-01-05T03:54:24;14.65;;;7.82;;
75781;SDS011;64400;44.762;37.698;2023-01-05T03:57:02;11.95;;;7.05;;
75781;SDS011;64400;44.762;37.698;2023-01-05T03:59:40;11.50;;;6.55;;
75781;SDS011;64400;44.762;37.698;2023-01-05T04:02:18;11.85;;;6.47;;
75781;SDS011;64400;44.762;37.698;2023-01-05T04:04:57;23.33;;;8.68;;
75781;SDS011;64400;44.762;37.698;2023-01-05T04:07:36;18.83;;;8.50;;
75781;SDS011;64400;44.762;37.698;2023-01-05T04:10:14;13.95;;;7.40;;
75781;SDS011;64400;44.762;37.698;2023-01-05T04:12:53;15.98;;;7.55;;
75781;SDS011;64400;44.762;37.698;2023-01-05T04:15:31;15.00;;;8.02;;
75781;SDS011;64400;44.762;37.698;2023-01-05T04:18:12;12.77;;;7.93;;
75781;SDS011;64400;44.762;37.698;2023-01-05T04:20:50;11.30;;;7.45;;
75781;SDS011;64400;44.762;37.698;2023-01-05T04:23:29;15.38;;;6.80;;
75781;SDS011;64400;44.762;37.698;2023-01-05T04:26:07;11.35;;;6.40;;
75781;SDS011;64400;44.762;37.698;2023-01-05T04:28:47;12.68;;;6.43;;
75781;SDS011;64400;44.762;37.698;2023-01-05T04:31:28;15.63;;;7.20;;
75781;SDS011;64400;44.762;37.698;2023-01-05T04:34:07;10.82;;;6.72;;
75781;SDS011;64400;44.762;37.698;2023-01-05T04:36:46;11.23;;;7.07;;
75781;SDS011;64400;44.762;37.698;2023-01-05T04:39:29;12.68;;;7.65;;
75781;SDS011;64400;44.762;37.698;2023-01-05T04:42:07;16.75;;;10.50;;
75781;SDS011;64400;44.762;37.698;2023-01-05T04:44:46;17.13;;;9.25;;
75781;SDS011;64400;44.762;37.698;2023-01-05T04:47:24;17.15;;;8.95;;
75781;SDS011;64400;44.762;37.698;2023-01-05T04:50:03;13.10;;;8.10;;
75781;SDS011;64400;44.762;37.698;2023-01-05T04:52:41;34.13;;;14.05;;
75781;SDS011;64400;44.762;37.698;2023-01-05T04:55:20;43.75;;;16.50;;
75781;SDS011;64400;44.762;37.698;2023-01-05T04:57:59;47.60;;;18.27;;
75781;SDS011;64400;44.762;37.698;2023-01-05T05:00:44;56.75;;;21.30;;
75781;SDS011;64400;44.762;37.698;2023-01-05T05:03:22;90.00;;;32.40;;
75781;SDS011;64400;44.762;37.698;2023-01-05T05:06:07;56.10;;;23.05;;
75781;SDS011;64400;44.762;37.698;2023-01-05T05:08:46;63.88;;;27.00;;
75781;SDS011;64400;44.762;37.698;2023-01-05T05:11:24;34.35;;;16.35;;
75781;SDS011;64400;44.762;37.698;2023-01-05T05:14:02;29.77;;;15.73;;
75781;SDS011;64400;44.762;37.698;2023-01-05T05:16:41;37.08;;;17.48;;
75781;SDS011;64400;44.762;37.698;2023-01-05T05:19:20;44.03;;;17.60;;
75781;SDS011;64400;44.762;37.698;2023-01-05T05:21:58;38.15;;;17.02;;
75781;SDS011;64400;44.762;37.698;2023-01-05T05:24:37;41.72;;;18.15;;
75781;SDS011;64400;44.762;37.698;2023-01-05T05:27:16;43.03;;;17.80;;
75781;SDS011;64400;44.762;37.698;2023-01-05T05:29:55;44.40;;;18.02;;
75781;SDS011;64400;44.762;37.698;2023-01-05T05:32:33;38.70;;;15.75;;
75781;SDS011;64400;44.762;37.698;2023-01-05T05:35:18;27.67;;;12.43;;
75781;SDS011;64400;44.762;37.698;2023-01-05T05:37:56;30.80;;;13.23;;
75781;SDS011;64400;44.762;37.698;2023-01-05T05:40:34;32.83;;;12.60;;
75781;SDS011;64400;44.762;37.698;2023-01-05T05:43:12;29.92;;;13.10;;
75781;SDS011;64400;44.762;37.698;2023-01-05T05:45:50;37.72;;;15.30;;
75781;SDS011;64400;44.762;37.698;2023-01-05T05:48:28;35.33;;;15.48;;
75781;SDS011;64400;44.762;37.698;2023-01-05T05:51:07;28.35;;;13.68;;
75781;SDS011;64400;44.762;37.698;2023-01-05T05:53:45;37.53;;;15.93;;
75781;SDS011;64400;44.762;37.698;2023-01-05T05:56:23;43.17;;;19.80;;
75781;SDS011;64400;44.762;37.698;2023-01-05T05:59:01;46.97;;;23.77;;
75781;SDS011;64400;44.762;37.698;2023-01-05T06:01:39;33.45;;;16.95;;
75781;SDS011;64400;44.762;37.698;2023-01-05T06:04:17;34.30;;;16.80;;
75781;SDS011;64400;44.762;37.698;2023-01-05T06:06:56;36.28;;;17.63;;
75781;SDS011;64400;44.762;37.698;2023-01-05T06:09:34;35.33;;;16.85;;
75781;SDS011;64400;44.762;37.698;2023-01-05T06:12:12;32.65;;;16.65;;
75781;SDS011;64400;44.762;37.698;2023-01-05T06:14:50;25.05;;;11.90;;
75781;SDS011;64400;44.762;37.698;2023-01-05T06:17:28;31.08;;;12.70;;
75781;SDS011;64400;44.762;37.698;2023-01-05T06:20:07;23.50;;;10.80;;
75781;SDS011;64400;44.762;37.698;2023-01-05T06:22:46;19.00;;;10.13;;
75781;SDS011;64400;44.762;37.698;2023-01-05T06:25:24;18.30;;;9.43;;
75781;SDS011;64400;44.762;37.698;2023-01-05T06:28:02;20.65;;;10.13;;
75781;SDS011;64400;44.762;37.698;2023-01-05T06:30:41;23.17;;;12.35;;
75781;SDS011;64400;44.762;37.698;2023-01-05T06:33:19;27.88;;;15.35;;
75781;SDS011;64400;44.762;37.698;2023-01-05T06:35:57;18.05;;;9.02;;
75781;SDS011;64400;44.762;37.698;2023-01-05T06:38:36;22.90;;;7.95;;
75781;SDS011;64400;44.762;37.698;2023-01-05T06:41:14;12.65;;;5.60;;
75781;SDS011;64400;44.762;37.698;2023-01-05T06:43:52;13.35;;;6.20;;
75781;SDS011;64400;44.762;37.698;2023-01-05T06:46:31;13.52;;;6.38;;
75781;SDS011;64400;44.762;37.698;2023-01-05T06:49:10;10.48;;;5.75;;
75781;SDS011;64400;44.762;37.698;2023-01-05T06:51:49;11.85;;;6.00;;
75781;SDS011;64400;44.762;37.698;2023-01-05T06:54:27;13.13;;;5.40;;
75781;SDS011;64400;44.762;37.698;2023-01-05T06:57:06;9.65;;;5.38;;
75781;SDS011;64400;44.762;37.698;2023-01-05T06:59:44;9.60;;;5.47;;
75781;SDS011;64400;44.762;37.698;2023-01-05T07:02:23;8.13;;;4.55;;
75781;SDS011;64400;44.762;37.698;2023-01-05T07:05:01;9.35;;;5.38;;
75781;SDS011;64400;44.762;37.698;2023-01-05T07:07:39;10.25;;;4.82;;
75781;SDS011;64400;44.762;37.698;2023-01-05T07:10:19;8.02;;;4.68;;
75781;SDS011;64400;44.762;37.698;2023-01-05T07:12:58;8.77;;;4.78;;
75781;SDS011;64400;44.762;37.698;2023-01-05T07:15:37;6.78;;;4.15;;
75781;SDS011;64400;44.762;37.698;2023-01-05T07:18:15;12.77;;;4.65;;
75781;SDS011;64400;44.762;37.698;2023-01-05T07:20:53;8.35;;;4.43;;
75781;SDS011;64400;44.762;37.698;2023-01-05T07:23:31;9.70;;;4.97;;
75781;SDS011;64400;44.762;37.698;2023-01-05T07:26:09;11.02;;;5.00;;
75781;SDS011;64400;44.762;37.698;2023-01-05T07:28:47;10.98;;;5.88;;
75781;SDS011;64400;44.762;37.698;2023-01-05T07:31:26;12.77;;;5.30;;
75781;SDS011;64400;44.762;37.698;2023-01-05T07:34:04;10.82;;;5.60;;
75781;SDS011;64400;44.762;37.698;2023-01-05T07:36:43;16.42;;;7.00;;
75781;SDS011;64400;44.762;37.698;2023-01-05T07:39:21;12.18;;;6.03;;
75781;SDS011;64400;44.762;37.698;2023-01-05T07:42:00;18.15;;;7.10;;
75781;SDS011;64400;44.762;37.698;2023-01-05T07:44:39;11.48;;;6.53;;
75781;SDS011;64400;44.762;37.698;2023-01-05T07:47:18;14.02;;;6.68;;
75781;SDS011;64400;44.762;37.698;2023-01-05T07:49:56;15.35;;;6.55;;
75781;SDS011;64400;44.762;37.698;2023-01-05T07:52:34;17.25;;;7.38;;
75781;SDS011;64400;44.762;37.698;2023-01-05T07:55:12;25.98;;;9.60;;
75781;SDS011;64400;44.762;37.698;2023-01-05T07:57:51;17.33;;;7.55;;
75781;SDS011;64400;44.762;37.698;2023-01-05T08:00:29;14.07;;;6.43;;
75781;SDS011;64400;44.762;37.698;2023-01-05T08:03:07;20.38;;;7.75;;
75781;SDS011;64400;44.762;37.698;2023-01-05T08:05:45;12.45;;;6.70;;
75781;SDS011;64400;44.762;37.698;2023-01-05T08:08:24;13.98;;;6.68;;
75781;SDS011;64400;44.762;37.698;2023-01-05T08:11:03;13.88;;;6.80;;
75781;SDS011;64400;44.762;37.698;2023-01-05T08:13:43;15.00;;;7.60;;
75781;SDS011;64400;44.762;37.698;2023-01-05T08:16:37;18.20;;;7.47;;
75781;SDS011;64400;44.762;37.698;2023-01-05T08:19:15;22.23;;;7.88;;
75781;SDS011;64400;44.762;37.698;2023-01-05T08:21:54;14.10;;;7.55;;
75781;SDS011;64400;44.762;37.698;2023-01-05T08:24:32;17.35;;;7.00;;
75781;SDS011;64400;44.762;37.698;2023-01-05T08:27:10;14.82;;;7.57;;
75781;SDS011;64400;44.762;37.698;2023-01-05T08:29:48;14.90;;;7.25;;
75781;SDS011;64400;44.762;37.698;2023-01-05T08:32:27;14.57;;;8.00;;
75781;SDS011;64400;44.762;37.698;2023-01-05T08:35:05;14.18;;;7.15;;
75781;SDS011;64400;44.762;37.698;2023-01-05T08:37:43;20.77;;;7.68;;
75781;SDS011;64400;44.762;37.698;2023-01-05T08:40:22;25.42;;;9.48;;
75781;SDS011;64400;44.762;37.698;2023-01-05T08:43:05;16.15;;;7.13;;
75781;SDS011;64400;44.762;37.698;2023-01-05T08:46:03;15.02;;;6.32;;
75781;SDS011;64400;44.762;37.698;2023-01-05T08:49:05;18.77;;;7.32;;
75781;SDS011;64400;44.762;37.698;2023-01-05T08:51:46;15.98;;;7.75;;
75781;SDS011;64400;44.762;37.698;2023-01-05T08:54:30;16.38;;;7.72;;
75781;SDS011;64400;44.762;37.698;2023-01-05T08:57:10;12.10;;;6.00;;
75781;SDS011;64400;44.762;37.698;2023-01-05T08:59:50;9.10;;;5.43;;
75781;SDS011;64400;44.762;37.698;2023-01-05T09:02:28;11.52;;;6.00;;
75781;SDS011;64400;44.762;37.698;2023-01-05T09:05:07;11.77;;;6.22;;
75781;SDS011;64400;44.762;37.698;2023-01-05T09:07:46;12.35;;;5.95;;
75781;SDS011;64400;44.762;37.698;2023-01-05T09:10:24;6.10;;;3.85;;
75781;SDS011;64400;44.762;37.698;2023-01-05T09:13:02;5.68;;;3.00;;
75781;SDS011;64400;44.762;37.698;2023-01-05T09:15:40;8.23;;;4.07;;
75781;SDS011;64400;44.762;37.698;2023-01-05T09:18:18;5.82;;;3.20;;
75781;SDS011;64400;44.762;37.698;2023-01-05T09:20:57;6.63;;;3.28;;
75781;SDS011;64400;44.762;37.698;2023-01-05T09:23:54;6.43;;;2.85;;
75781;SDS011;64400;44.762;37.698;2023-01-05T09:26:32;6.45;;;3.15;;
75781;SDS011;64400;44.762;37.698;2023-01-05T09:29:11;5.47;;;3.08;;
75781;SDS011;64400;44.762;37.698;2023-01-05T09:31:49;8.82;;;2.45;;
75781;SDS011;64400;44.762;37.698;2023-01-05T09:34:27;6.63;;;3.30;;
75781;SDS011;64400;44.762;37.698;2023-01-05T09:37:06;7.22;;;3.38;;
75781;SDS011;64400;44.762;37.698;2023-01-05T09:39:44;7.80;;;3.72;;
75781;SDS011;64400;44.762;37.698;2023-01-05T09:42:23;6.68;;;3.33;;
75781;SDS011;64400;44.762;37.698;2023-01-05T09:45:09;6.43;;;3.58;;
75781;SDS011;64400;44.762;37.698;2023-01-05T09:47:49;6.15;;;3.13;;
75781;SDS011;64400;44.762;37.698;2023-01-05T09:50:29;4.70;;;2.67;;
75781;SDS011;64400;44.762;37.698;2023-01-05T09:53:08;7.40;;;3.28;;
75781;SDS011;64400;44.762;37.698;2023-01-05T09:55:49;7.82;;;2.95;;
75781;SDS011;64400;44.762;37.698;2023-01-05T09:58:29;7.03;;;3.53;;
75781;SDS011;64400;44.762;37.698;2023-01-05T10:01:14;15.23;;;5.63;;
75781;SDS011;64400;44.762;37.698;2023-01-05T10:03:57;6.78;;;3.25;;
75781;SDS011;64400;44.762;37.698;2023-01-05T10:06:42;8.57;;;3.67;;
75781;SDS011;64400;44.762;37.698;2023-01-05T10:09:32;4.70;;;2.53;;
75781;SDS011;64400;44.762;37.698;2023-01-05T10:12:25;4.78;;;2.28;;
75781;SDS011;64400;44.762;37.698;2023-01-05T10:15:39;4.40;;;2.30;;
75781;SDS011;64400;44.762;37.698;2023-01-05T10:18:36;8.23;;;4.43;;
75781;SDS011;64400;44.762;37.698;2023-01-05T10:21:19;13.77;;;4.63;;
75781;SDS011;64400;44.762;37.698;2023-01-05T10:27:38;4.68;;;2.72;;
75781;SDS011;64400;44.762;37.698;2023-01-05T10:30:23;9.23;;;3.00;;
75781;SDS011;64400;44.762;37.698;2023-01-05T10:33:14;4.72;;;2.58;;
75781;SDS011;64400;44.762;37.698;2023-01-05T10:39:22;7.20;;;3.38;;
75781;SDS011;64400;44.762;37.698;2023-01-05T10:44:57;4.13;;;2.00;;
75781;SDS011;64400;44.762;37.698;2023-01-05T10:47:41;6.72;;;3.45;;
75781;SDS011;64400;44.762;37.698;2023-01-05T10:50:27;5.10;;;2.38;;
75781;SDS011;64400;44.762;37.698;2023-01-05T10:53:11;7.32;;;2.78;;
75781;SDS011;64400;44.762;37.698;2023-01-05T11:01:46;5.97;;;2.83;;
75781;SDS011;64400;44.762;37.698;2023-01-05T11:04:26;6.38;;;2.85;;
75781;SDS011;64400;44.762;37.698;2023-01-05T11:07:11;7.25;;;1.95;;
75781;SDS011;64400;44.762;37.698;2023-01-05T11:09:49;6.03;;;3.17;;
75781;SDS011;64400;44.762;37.698;2023-01-05T11:12:28;4.47;;;2.60;;
75781;SDS011;64400;44.762;37.698;2023-01-05T11:15:09;8.02;;;3.95;;
75781;SDS011;64400;44.762;37.698;2023-01-05T11:17:51;6.45;;;2.42;;
75781;SDS011;64400;44.762;37.698;2023-01-05T11:20:30;3.65;;;1.75;;
75781;SDS011;64400;44.762;37.698;2023-01-05T11:23:21;5.75;;;2.30;;
75781;SDS011;64400;44.762;37.698;2023-01-05T11:34:23;5.68;;;2.65;;
75781;SDS011;64400;44.762;37.698;2023-01-05T11:39:59;4.55;;;2.50;;
75781;SDS011;64400;44.762;37.698;2023-01-05T11:42:39;3.13;;;1.85;;
75781;SDS011;64400;44.762;37.698;2023-01-05T11:48:01;5.40;;;2.30;;
75781;SDS011;64400;44.762;37.698;2023-01-05T11:50:45;7.07;;;2.95;;
75781;SDS011;64400;44.762;37.698;2023-01-05T11:56:16;7.28;;;2.55;;
75781;SDS011;64400;44.762;37.698;2023-01-05T11:58:57;4.55;;;2.25;;
75781;SDS011;64400;44.762;37.698;2023-01-05T12:04:57;9.52;;;3.30;;
75781;SDS011;64400;44.762;37.698;2023-01-05T12:07:52;4.68;;;1.95;;
75781;SDS011;64400;44.762;37.698;2023-01-05T12:16:46;4.65;;;1.90;;
75781;SDS011;64400;44.762;37.698;2023-01-05T12:49:39;7.38;;;3.85;;
75781;SDS011;64400;44.762;37.698;2023-01-05T12:52:24;4.63;;;2.42;;
75781;SDS011;64400;44.762;37.698;2023-01-05T12:55:26;12.18;;;3.92;;
75781;SDS011;64400;44.762;37.698;2023-01-05T12:58:21;6.45;;;2.60;;
75781;SDS011;64400;44.762;37.698;2023-01-05T13:01:05;4.03;;;2.42;;
75781;SDS011;64400;44.762;37.698;2023-01-05T13:03:54;10.00;;;2.35;;
75781;SDS011;64400;44.762;37.698;2023-01-05T13:06:37;7.97;;;2.55;;
75781;SDS011;64400;44.762;37.698;2023-01-05T13:09:20;7.40;;;3.45;;
75781;SDS011;64400;44.762;37.698;2023-01-05T13:12:08;5.85;;;2.55;;
75781;SDS011;64400;44.762;37.698;2023-01-05T13:15:35;4.68;;;2.20;;
75781;SDS011;64400;44.762;37.698;2023-01-05T13:17:57;6.97;;;2.15;;
75781;SDS011;64400;44.762;37.698;2023-01-05T13:20:42;4.38;;;2.20;;
75781;SDS011;64400;44.762;37.698;2023-01-05T13:23:26;4.65;;;2.13;;
75781;SDS011;64400;44.762;37.698;2023-01-05T13:26:13;11.25;;;3.50;;
75781;SDS011;64400;44.762;37.698;2023-01-05T13:28:53;10.65;;;4.30;;
75781;SDS011;64400;44.762;37.698;2023-01-05T13:50:22;5.45;;;2.05;;
75781;SDS011;64400;44.762;37.698;2023-01-05T13:55:50;8.00;;;3.25;;
75781;SDS011;64400;44.762;37.698;2023-01-05T14:01:33;7.05;;;3.20;;
75781;SDS011;64400;44.762;37.698;2023-01-05T14:04:20;5.43;;;2.88;;
75781;SDS011;64400;44.762;37.698;2023-01-05T14:07:04;10.35;;;3.53;;
75781;SDS011;64400;44.762;37.698;2023-01-05T14:09:55;4.78;;;2.50;;
75781;SDS011;64400;44.762;37.698;2023-01-05T14:12:45;7.82;;;3.63;;
75781;SDS011;64400;44.762;37.698;2023-01-05T14:15:36;10.95;;;2.90;;
75781;SDS011;64400;44.762;37.698;2023-01-05T14:32:36;5.32;;;3.00;;
75781;SDS011;64400;44.762;37.698;2023-01-05T14:35:29;7.95;;;3.65;;
75781;SDS011;64400;44.762;37.698;2023-01-05T14:38:18;5.40;;;2.50;;
75781;SDS011;64400;44.762;37.698;2023-01-05T14:40:59;6.53;;;2.83;;
75781;SDS011;64400;44.762;37.698;2023-01-05T14:43:37;4.22;;;2.55;;
75781;SDS011;64400;44.762;37.698;2023-01-05T14:46:16;12.65;;;2.80;;
75781;SDS011;64400;44.762;37.698;2023-01-05T14:48:59;8.07;;;3.95;;
75781;SDS011;64400;44.762;37.698;2023-01-05T14:51:50;6.78;;;2.30;;
75781;SDS011;64400;44.762;37.698;2023-01-05T15:03:09;4.85;;;2.92;;
75781;SDS011;64400;44.762;37.698;2023-01-05T15:11:57;5.18;;;2.20;;
75781;SDS011;64400;44.762;37.698;2023-01-05T15:15:05;3.33;;;1.60;;
75781;SDS011;64400;44.762;37.698;2023-01-05T15:27:04;3.00;;;1.50;;
75781;SDS011;64400;44.762;37.698;2023-01-05T15:33:11;7.05;;;2.70;;
75781;SDS011;64400;44.762;37.698;2023-01-05T15:35:51;4.03;;;1.75;;
75781;SDS011;64400;44.762;37.698;2023-01-05T15:38:42;3.60;;;1.58;;
75781;SDS011;64400;44.762;37.698;2023-01-05T15:41:22;5.20;;;1.90;;
75781;SDS011;64400;44.762;37.698;2023-01-05T15:44:02;2.83;;;1.75;;
75781;SDS011;64400;44.762;37.698;2023-01-05T15:46:41;4.28;;;2.45;;
75781;SDS011;64400;44.762;37.698;2023-01-05T15:49:21;3.60;;;1.60;;
75781;SDS011;64400;44.762;37.698;2023-01-05T15:52:01;5.85;;;2.35;;
75781;SDS011;64400;44.762;37.698;2023-01-05T15:54:39;7.13;;;3.22;;
75781;SDS011;64400;44.762;37.698;2023-01-05T15:57:19;4.15;;;1.67;;
75781;SDS011;64400;44.762;37.698;2023-01-05T15:59:57;5.90;;;1.88;;
75781;SDS011;64400;44.762;37.698;2023-01-05T16:02:35;4.53;;;2.00;;
75781;SDS011;64400;44.762;37.698;2023-01-05T16:05:18;4.70;;;2.30;;
75781;SDS011;64400;44.762;37.698;2023-01-05T16:08:04;5.70;;;2.20;;
75781;SDS011;64400;44.762;37.698;2023-01-05T16:10:53;6.07;;;2.17;;
75781;SDS011;64400;44.762;37.698;2023-01-05T16:13:43;5.43;;;2.22;;
75781;SDS011;64400;44.762;37.698;2023-01-05T16:19:48;5.40;;;2.65;;
75781;SDS011;64400;44.762;37.698;2023-01-05T16:22:40;3.30;;;1.67;;
75781;SDS011;64400;44.762;37.698;2023-01-05T16:25:26;8.38;;;2.80;;
75781;SDS011;64400;44.762;37.698;2023-01-05T16:28:10;5.18;;;2.50;;
75781;SDS011;64400;44.762;37.698;2023-01-05T16:30:53;5.70;;;2.40;;
75781;SDS011;64400;44.762;37.698;2023-01-05T16:33:33;6.10;;;2.55;;
75781;SDS011;64400;44.762;37.698;2023-01-05T16:36:19;5.55;;;2.97;;
75781;SDS011;64400;44.762;37.698;2023-01-05T16:39:14;5.55;;;2.78;;
75781;SDS011;64400;44.762;37.698;2023-01-05T16:42:03;6.22;;;3.00;;
75781;SDS011;64400;44.762;37.698;2023-01-05T16:45:17;5.75;;;2.75;;
75781;SDS011;64400;44.762;37.698;2023-01-05T16:47:57;8.05;;;3.30;;
75781;SDS011;64400;44.762;37.698;2023-01-05T16:53:14;6.10;;;2.42;;
75781;SDS011;64400;44.762;37.698;2023-01-05T16:55:53;5.88;;;3.13;;
75781;SDS011;64400;44.762;37.698;2023-01-05T16:58:36;5.57;;;2.47;;
75781;SDS011;64400;44.762;37.698;2023-01-05T17:01:15;6.32;;;2.28;;
75781;SDS011;64400;44.762;37.698;2023-01-05T17:03:58;3.78;;;2.05;;
75781;SDS011;64400;44.762;37.698;2023-01-05T17:06:48;4.47;;;2.70;;
75781;SDS011;64400;44.762;37.698;2023-01-05T17:09:29;6.05;;;2.25;;
75781;SDS011;64400;44.762;37.698;2023-01-05T17:12:09;5.75;;;2.33;;
75781;SDS011;64400;44.762;37.698;2023-01-05T17:14:49;5.90;;;2.10;;
75781;SDS011;64400;44.762;37.698;2023-01-05T17:17:28;8.93;;;2.83;;
75781;SDS011;64400;44.762;37.698;2023-01-05T17:20:06;5.05;;;2.40;;
75781;SDS011;64400;44.762;37.698;2023-01-05T17:22:52;5.50;;;2.28;;
75781;SDS011;64400;44.762;37.698;2023-01-05T17:25:31;4.80;;;2.35;;
75781;SDS011;64400;44.762;37.698;2023-01-05T17:28:10;6.55;;;3.40;;
75781;SDS011;64400;44.762;37.698;2023-01-05T17:30:53;6.90;;;3.17;;
75781;SDS011;64400;44.762;37.698;2023-01-05T17:33:31;5.25;;;2.72;;
75781;SDS011;64400;44.762;37.698;2023-01-05T17:36:09;8.35;;;2.97;;
75781;SDS011;64400;44.762;37.698;2023-01-05T17:38:49;5.53;;;2.50;;
75781;SDS011;64400;44.762;37.698;2023-01-05T17:41:28;6.10;;;2.65;;
75781;SDS011;64400;44.762;37.698;2023-01-05T17:44:06;5.38;;;2.38;;
75781;SDS011;64400;44.762;37.698;2023-01-05T17:46:50;5.15;;;3.05;;
75781;SDS011;64400;44.762;37.698;2023-01-05T17:49:28;7.00;;;3.85;;
75781;SDS011;64400;44.762;37.698;2023-01-05T17:52:09;4.85;;;2.30;;
75781;SDS011;64400;44.762;37.698;2023-01-05T17:54:50;5.38;;;2.65;;
75781;SDS011;64400;44.762;37.698;2023-01-05T17:57:28;5.43;;;2.55;;
75781;SDS011;64400;44.762;37.698;2023-01-05T18:00:06;4.80;;;2.70;;
75781;SDS011;64400;44.762;37.698;2023-01-05T18:02:48;6.95;;;3.45;;
75781;SDS011;64400;44.762;37.698;2023-01-05T18:05:27;5.60;;;2.97;;
75781;SDS011;64400;44.762;37.698;2023-01-05T18:08:05;8.25;;;3.55;;
75781;SDS011;64400;44.762;37.698;2023-01-05T18:10:43;7.97;;;3.42;;
75781;SDS011;64400;44.762;37.698;2023-01-05T18:13:23;6.65;;;3.53;;
75781;SDS011;64400;44.762;37.698;2023-01-05T18:16:08;4.63;;;2.95;;
75781;SDS011;64400;44.762;37.698;2023-01-05T18:18:47;8.15;;;2.80;;
75781;SDS011;64400;44.762;37.698;2023-01-05T18:21:25;4.72;;;2.47;;
75781;SDS011;64400;44.762;37.698;2023-01-05T18:24:04;7.00;;;3.17;;
75781;SDS011;64400;44.762;37.698;2023-01-05T18:26:42;5.45;;;2.83;;
75781;SDS011;64400;44.762;37.698;2023-01-05T18:29:20;7.32;;;3.67;;
75781;SDS011;64400;44.762;37.698;2023-01-05T18:31:59;7.00;;;2.97;;
75781;SDS011;64400;44.762;37.698;2023-01-05T18:34:38;7.57;;;3.33;;
75781;SDS011;64400;44.762;37.698;2023-01-05T18:37:16;4.60;;;2.70;;